sensor_id;sensor_type;location;lat;lon;timestamp;P1;durP1;ratioP1;P2;durP2;ratioP2
1370;SDS011;14306;49.942;11.570;2022-11-21T00:00:24;7.00;;;2.67;;
1370;SDS011;14306;49.942;11.570;2022-11-21T00:02:51;4.10;;;3.70;;
1370;SDS011;14306;49.942;11.570;2022-11-21T00:05:18;3.60;;;3.00;;
1370;SDS011;14306;49.942;11.570;2022-11-21T00:07:44;2.60;;;2.40;;
1370;SDS011;14306;49.942;11.570;2022-11-21T00:10:12;3.40;;;2.37;;
1370;SDS011;14306;49.942;11.570;2022-11-21T00:12:39;4.17;;;2.57;;
1370;SDS011;14306;49.942;11.570;2022-11-21T00:15:06;5.53;;;3.40;;
1370;SDS011;14306;49.942;11.570;2022-11-21T00:17:33;4.00;;;2.80;;
1370;SDS011;14306;49.942;11.570;2022-11-21T00:20:00;4.10;;;3.70;;
1370;SDS011;14306;49.942;11.570;2022-11-21T00:22:26;4.13;;;3.73;;
1370;SDS011;14306;49.942;11.570;2022-11-21T00:24:53;3.43;;;2.60;;
1370;SDS011;14306;49.942;11.570;2022-11-21T00:27:21;4.50;;;3.20;;
1370;SDS011;14306;49.942;11.570;2022-11-21T00:29:47;4.33;;;3.30;;
1370;SDS011;14306;49.942;11.570;2022-11-21T00:32:14;4.93;;;3.00;;
1370;SDS011;14306;49.942;11.570;2022-11-21T00:34:40;3.57;;;2.67;;
1370;SDS011;14306;49.942;11.570;2022-11-21T00:37:07;6.63;;;4.30;;
1370;SDS011;14306;49.942;11.570;2022-11-21T00:39:34;5.00;;;3.37;;
1370;SDS011;14306;49.942;11.570;2022-11-21T00:42:00;6.67;;;4.40;;
1370;SDS011;14306;49.942;11.570;2022-11-21T00:44:28;7.00;;;2.70;;
1370;SDS011;14306;49.942;11.570;2022-11-21T00:46:55;4.90;;;3.17;;
1370;SDS011;14306;49.942;11.570;2022-11-21T00:49:21;3.43;;;2.87;;
1370;SDS011;14306;49.942;11.570;2022-11-21T00:51:48;4.83;;;3.40;;
1370;SDS011;14306;49.942;11.570;2022-11-21T00:54:14;5.17;;;3.53;;
1370;SDS011;14306;49.942;11.570;2022-11-21T00:56:41;3.50;;;2.33;;
1370;SDS011;14306;49.942;11.570;2022-11-21T00:59:07;5.13;;;2.37;;
1370;SDS011;14306;49.942;11.570;2022-11-21T01:01:35;4.83;;;2.43;;
1370;SDS011;14306;49.942;11.570;2022-11-21T01:04:02;3.13;;;2.53;;
1370;SDS011;14306;49.942;11.570;2022-11-21T01:06:28;3.03;;;2.00;;
1370;SDS011;14306;49.942;11.570;2022-11-21T01:08:55;2.80;;;2.53;;
1370;SDS011;14306;49.942;11.570;2022-11-21T01:11:22;4.40;;;3.00;;
1370;SDS011;14306;49.942;11.570;2022-11-21T01:13:48;10.93;;;3.10;;
1370;SDS011;14306;49.942;11.570;2022-11-21T01:16:18;4.13;;;2.50;;
1370;SDS011;14306;49.942;11.570;2022-11-21T01:18:48;2.40;;;2.20;;
1370;SDS011;14306;49.942;11.570;2022-11-21T01:21:16;8.23;;;3.30;;
1370;SDS011;14306;49.942;11.570;2022-11-21T01:23:44;3.20;;;2.13;;
1370;SDS011;14306;49.942;11.570;2022-11-21T01:26:12;6.30;;;2.40;;
1370;SDS011;14306;49.942;11.570;2022-11-21T01:28:40;3.07;;;2.20;;
1370;SDS011;14306;49.942;11.570;2022-11-21T01:31:08;4.33;;;2.20;;
1370;SDS011;14306;49.942;11.570;2022-11-21T01:33:36;4.83;;;2.07;;
1370;SDS011;14306;49.942;11.570;2022-11-21T01:36:08;4.07;;;2.70;;
1370;SDS011;14306;49.942;11.570;2022-11-21T01:38:36;3.10;;;2.07;;
1370;SDS011;14306;49.942;11.570;2022-11-21T01:41:03;3.13;;;1.80;;
1370;SDS011;14306;49.942;11.570;2022-11-21T01:43:30;2.93;;;1.90;;
1370;SDS011;14306;49.942;11.570;2022-11-21T01:45:57;2.80;;;1.50;;
1370;SDS011;14306;49.942;11.570;2022-11-21T01:48:27;9.03;;;1.83;;
1370;SDS011;14306;49.942;11.570;2022-11-21T01:50:58;3.07;;;1.93;;
1370;SDS011;14306;49.942;11.570;2022-11-21T01:53:32;3.77;;;2.10;;
1370;SDS011;14306;49.942;11.570;2022-11-21T01:56:00;5.10;;;2.20;;
1370;SDS011;14306;49.942;11.570;2022-11-21T01:58:27;2.47;;;1.67;;
1370;SDS011;14306;49.942;11.570;2022-11-21T02:00:55;8.70;;;2.20;;
1370;SDS011;14306;49.942;11.570;2022-11-21T02:03:22;3.07;;;1.40;;
1370;SDS011;14306;49.942;11.570;2022-11-21T02:05:52;8.20;;;2.63;;
1370;SDS011;14306;49.942;11.570;2022-11-21T02:08:21;6.13;;;1.83;;
1370;SDS011;14306;49.942;11.570;2022-11-21T02:10:55;3.27;;;1.63;;
1370;SDS011;14306;49.942;11.570;2022-11-21T02:13:29;5.40;;;1.60;;
1370;SDS011;14306;49.942;11.570;2022-11-21T02:15:56;3.00;;;1.73;;
1370;SDS011;14306;49.942;11.570;2022-11-21T02:18:22;3.70;;;1.83;;
1370;SDS011;14306;49.942;11.570;2022-11-21T02:20:51;3.67;;;1.90;;
1370;SDS011;14306;49.942;11.570;2022-11-21T02:23:29;2.87;;;1.80;;
1370;SDS011;14306;49.942;11.570;2022-11-21T02:26:02;7.80;;;1.77;;
1370;SDS011;14306;49.942;11.570;2022-11-21T02:28:29;2.50;;;1.70;;
1370;SDS011;14306;49.942;11.570;2022-11-21T02:30:56;9.53;;;1.73;;
1370;SDS011;14306;49.942;11.570;2022-11-21T02:33:23;3.27;;;1.40;;
1370;SDS011;14306;49.942;11.570;2022-11-21T02:35:56;2.47;;;1.37;;
1370;SDS011;14306;49.942;11.570;2022-11-21T02:38:24;1.93;;;1.30;;
1370;SDS011;14306;49.942;11.570;2022-11-21T02:40:57;7.60;;;1.83;;
1370;SDS011;14306;49.942;11.570;2022-11-21T02:43:30;2.90;;;1.60;;
1370;SDS011;14306;49.942;11.570;2022-11-21T02:46:01;4.57;;;1.80;;
1370;SDS011;14306;49.942;11.570;2022-11-21T02:48:27;8.43;;;1.90;;
1370;SDS011;14306;49.942;11.570;2022-11-21T02:50:54;1.30;;;1.17;;
1370;SDS011;14306;49.942;11.570;2022-11-21T02:53:20;3.53;;;1.30;;
1370;SDS011;14306;49.942;11.570;2022-11-21T02:55:47;2.43;;;1.20;;
1370;SDS011;14306;49.942;11.570;2022-11-21T02:58:14;7.57;;;2.23;;
1370;SDS011;14306;49.942;11.570;2022-11-21T03:00:42;5.37;;;2.03;;
1370;SDS011;14306;49.942;11.570;2022-11-21T03:03:08;3.80;;;1.73;;
1370;SDS011;14306;49.942;11.570;2022-11-21T03:05:35;4.10;;;2.40;;
1370;SDS011;14306;49.942;11.570;2022-11-21T03:08:03;7.73;;;1.60;;
1370;SDS011;14306;49.942;11.570;2022-11-21T03:10:30;3.07;;;1.73;;
1370;SDS011;14306;49.942;11.570;2022-11-21T03:12:57;4.20;;;1.20;;
1370;SDS011;14306;49.942;11.570;2022-11-21T03:15:26;3.37;;;1.60;;
1370;SDS011;14306;49.942;11.570;2022-11-21T03:17:54;3.70;;;1.40;;
1370;SDS011;14306;49.942;11.570;2022-11-21T03:20:21;1.63;;;1.13;;
1370;SDS011;14306;49.942;11.570;2022-11-21T03:22:48;10.73;;;2.50;;
1370;SDS011;14306;49.942;11.570;2022-11-21T03:25:15;1.23;;;1.10;;
1370;SDS011;14306;49.942;11.570;2022-11-21T03:27:42;3.60;;;1.30;;
1370;SDS011;14306;49.942;11.570;2022-11-21T03:30:09;4.60;;;2.00;;
1370;SDS011;14306;49.942;11.570;2022-11-21T03:32:36;2.37;;;1.33;;
1370;SDS011;14306;49.942;11.570;2022-11-21T03:35:04;4.50;;;1.20;;
1370;SDS011;14306;49.942;11.570;2022-11-21T03:37:31;3.33;;;1.40;;
1370;SDS011;14306;49.942;11.570;2022-11-21T03:39:58;1.87;;;1.30;;
1370;SDS011;14306;49.942;11.570;2022-11-21T03:42:24;2.43;;;1.30;;
1370;SDS011;14306;49.942;11.570;2022-11-21T03:44:51;2.23;;;1.20;;
1370;SDS011;14306;49.942;11.570;2022-11-21T03:47:17;4.93;;;1.60;;
1370;SDS011;14306;49.942;11.570;2022-11-21T03:49:44;1.40;;;1.10;;
1370;SDS011;14306;49.942;11.570;2022-11-21T03:52:12;4.40;;;1.60;;
1370;SDS011;14306;49.942;11.570;2022-11-21T03:54:38;3.23;;;1.23;;
1370;SDS011;14306;49.942;11.570;2022-11-21T03:57:05;8.80;;;1.20;;
1370;SDS011;14306;49.942;11.570;2022-11-21T03:59:32;2.77;;;1.03;;
1370;SDS011;14306;49.942;11.570;2022-11-21T04:01:58;1.60;;;1.10;;
1370;SDS011;14306;49.942;11.570;2022-11-21T04:04:25;5.30;;;1.00;;
1370;SDS011;14306;49.942;11.570;2022-11-21T04:06:51;1.30;;;1.10;;
1370;SDS011;14306;49.942;11.570;2022-11-21T04:09:19;3.67;;;1.50;;
1370;SDS011;14306;49.942;11.570;2022-11-21T04:11:46;7.80;;;1.40;;
1370;SDS011;14306;49.942;11.570;2022-11-21T04:14:12;1.50;;;0.87;;
1370;SDS011;14306;49.942;11.570;2022-11-21T04:16:39;6.13;;;1.17;;
1370;SDS011;14306;49.942;11.570;2022-11-21T04:19:05;9.53;;;1.40;;
1370;SDS011;14306;49.942;11.570;2022-11-21T04:21:32;6.50;;;1.17;;
1370;SDS011;14306;49.942;11.570;2022-11-21T04:24:01;3.37;;;1.00;;
1370;SDS011;14306;49.942;11.570;2022-11-21T04:26:29;4.77;;;1.33;;
1370;SDS011;14306;49.942;11.570;2022-11-21T04:28:56;5.60;;;1.80;;
1370;SDS011;14306;49.942;11.570;2022-11-21T04:31:23;3.47;;;1.43;;
1370;SDS011;14306;49.942;11.570;2022-11-21T04:33:49;2.50;;;1.67;;
1370;SDS011;14306;49.942;11.570;2022-11-21T04:36:16;4.63;;;1.47;;
1370;SDS011;14306;49.942;11.570;2022-11-21T04:38:42;7.80;;;1.60;;
1370;SDS011;14306;49.942;11.570;2022-11-21T04:41:09;3.13;;;1.27;;
1370;SDS011;14306;49.942;11.570;2022-11-21T04:43:37;2.63;;;1.10;;
1370;SDS011;14306;49.942;11.570;2022-11-21T04:46:03;3.33;;;1.33;;
1370;SDS011;14306;49.942;11.570;2022-11-21T04:48:30;5.13;;;1.33;;
1370;SDS011;14306;49.942;11.570;2022-11-21T04:50:57;2.50;;;1.97;;
1370;SDS011;14306;49.942;11.570;2022-11-21T04:53:24;3.50;;;1.60;;
1370;SDS011;14306;49.942;11.570;2022-11-21T04:55:50;4.07;;;1.73;;
1370;SDS011;14306;49.942;11.570;2022-11-21T04:58:17;3.57;;;1.40;;
1370;SDS011;14306;49.942;11.570;2022-11-21T05:00:45;2.80;;;1.13;;
1370;SDS011;14306;49.942;11.570;2022-11-21T05:03:11;1.53;;;1.07;;
1370;SDS011;14306;49.942;11.570;2022-11-21T05:05:38;1.47;;;1.30;;
1370;SDS011;14306;49.942;11.570;2022-11-21T05:08:05;5.30;;;1.20;;
1370;SDS011;14306;49.942;11.570;2022-11-21T05:10:31;1.97;;;1.10;;
1370;SDS011;14306;49.942;11.570;2022-11-21T05:13:18;2.53;;;1.10;;
1370;SDS011;14306;49.942;11.570;2022-11-21T05:15:48;3.20;;;1.47;;
1370;SDS011;14306;49.942;11.570;2022-11-21T05:18:20;1.50;;;1.17;;
1370;SDS011;14306;49.942;11.570;2022-11-21T05:20:47;2.27;;;1.13;;
1370;SDS011;14306;49.942;11.570;2022-11-21T05:23:13;6.63;;;1.20;;
1370;SDS011;14306;49.942;11.570;2022-11-21T05:25:40;2.90;;;1.27;;
1370;SDS011;14306;49.942;11.570;2022-11-21T05:28:07;1.70;;;1.00;;
1370;SDS011;14306;49.942;11.570;2022-11-21T05:30:33;1.50;;;1.40;;
1370;SDS011;14306;49.942;11.570;2022-11-21T05:33:02;2.00;;;1.33;;
1370;SDS011;14306;49.942;11.570;2022-11-21T05:35:29;1.10;;;1.00;;
1370;SDS011;14306;49.942;11.570;2022-11-21T05:37:56;4.10;;;2.70;;
1370;SDS011;14306;49.942;11.570;2022-11-21T05:40:23;5.93;;;1.30;;
1370;SDS011;14306;49.942;11.570;2022-11-21T05:42:50;3.13;;;1.20;;
1370;SDS011;14306;49.942;11.570;2022-11-21T05:45:34;6.67;;;1.30;;
1370;SDS011;14306;49.942;11.570;2022-11-21T05:48:00;10.00;;;1.40;;
1370;SDS011;14306;49.942;11.570;2022-11-21T05:50:31;3.00;;;1.10;;
1370;SDS011;14306;49.942;11.570;2022-11-21T05:52:59;4.80;;;1.53;;
1370;SDS011;14306;49.942;11.570;2022-11-21T05:55:26;6.23;;;1.40;;
1370;SDS011;14306;49.942;11.570;2022-11-21T05:57:53;4.20;;;1.63;;
1370;SDS011;14306;49.942;11.570;2022-11-21T06:00:19;4.53;;;2.30;;
1370;SDS011;14306;49.942;11.570;2022-11-21T06:02:46;5.23;;;1.60;;
1370;SDS011;14306;49.942;11.570;2022-11-21T06:05:32;7.10;;;2.00;;
1370;SDS011;14306;49.942;11.570;2022-11-21T06:07:58;6.03;;;1.50;;
1370;SDS011;14306;49.942;11.570;2022-11-21T06:10:25;3.73;;;1.83;;
1370;SDS011;14306;49.942;11.570;2022-11-21T06:12:51;3.07;;;1.67;;
1370;SDS011;14306;49.942;11.570;2022-11-21T06:15:18;3.23;;;1.83;;
1370;SDS011;14306;49.942;11.570;2022-11-21T06:17:45;3.57;;;1.30;;
1370;SDS011;14306;49.942;11.570;2022-11-21T06:20:11;8.93;;;1.87;;
1370;SDS011;14306;49.942;11.570;2022-11-21T06:22:39;6.53;;;1.87;;
1370;SDS011;14306;49.942;11.570;2022-11-21T06:25:06;2.07;;;1.40;;
1370;SDS011;14306;49.942;11.570;2022-11-21T06:27:33;6.30;;;3.00;;
1370;SDS011;14306;49.942;11.570;2022-11-21T06:30:00;6.93;;;1.70;;
1370;SDS011;14306;49.942;11.570;2022-11-21T06:32:26;4.43;;;1.67;;
1370;SDS011;14306;49.942;11.570;2022-11-21T06:34:53;5.17;;;2.07;;
1370;SDS011;14306;49.942;11.570;2022-11-21T06:37:20;3.03;;;1.93;;
1370;SDS011;14306;49.942;11.570;2022-11-21T06:39:50;5.77;;;2.33;;
1370;SDS011;14306;49.942;11.570;2022-11-21T06:42:17;9.30;;;2.00;;
1370;SDS011;14306;49.942;11.570;2022-11-21T06:44:44;5.53;;;2.00;;
1370;SDS011;14306;49.942;11.570;2022-11-21T06:47:10;3.43;;;2.17;;
1370;SDS011;14306;49.942;11.570;2022-11-21T06:49:37;7.77;;;2.50;;
1370;SDS011;14306;49.942;11.570;2022-11-21T06:52:06;6.47;;;2.90;;
1370;SDS011;14306;49.942;11.570;2022-11-21T06:54:33;5.50;;;2.57;;
1370;SDS011;14306;49.942;11.570;2022-11-21T06:57:01;6.47;;;3.17;;
1370;SDS011;14306;49.942;11.570;2022-11-21T06:59:27;9.47;;;3.60;;
1370;SDS011;14306;49.942;11.570;2022-11-21T07:01:54;8.30;;;3.07;;
1370;SDS011;14306;49.942;11.570;2022-11-21T07:04:20;8.17;;;2.20;;
1370;SDS011;14306;49.942;11.570;2022-11-21T07:06:47;5.00;;;2.70;;
1370;SDS011;14306;49.942;11.570;2022-11-21T07:09:13;11.23;;;2.47;;
1370;SDS011;14306;49.942;11.570;2022-11-21T07:11:40;7.63;;;2.20;;
1370;SDS011;14306;49.942;11.570;2022-11-21T07:14:08;3.63;;;2.43;;
1370;SDS011;14306;49.942;11.570;2022-11-21T07:16:34;9.00;;;2.20;;
1370;SDS011;14306;49.942;11.570;2022-11-21T07:19:00;6.40;;;1.90;;
1370;SDS011;14306;49.942;11.570;2022-11-21T07:21:27;5.40;;;2.40;;
1370;SDS011;14306;49.942;11.570;2022-11-21T07:23:54;5.93;;;2.00;;
1370;SDS011;14306;49.942;11.570;2022-11-21T07:26:20;7.00;;;1.80;;
1370;SDS011;14306;49.942;11.570;2022-11-21T07:28:47;7.90;;;1.73;;
1370;SDS011;14306;49.942;11.570;2022-11-21T07:31:15;3.07;;;2.23;;
1370;SDS011;14306;49.942;11.570;2022-11-21T07:33:41;4.30;;;1.80;;
1370;SDS011;14306;49.942;11.570;2022-11-21T07:36:09;2.80;;;1.67;;
1370;SDS011;14306;49.942;11.570;2022-11-21T07:38:36;6.10;;;2.10;;
1370;SDS011;14306;49.942;11.570;2022-11-21T07:41:03;3.70;;;2.10;;
1370;SDS011;14306;49.942;11.570;2022-11-21T07:43:29;6.10;;;2.20;;
1370;SDS011;14306;49.942;11.570;2022-11-21T07:45:56;5.00;;;1.83;;
1370;SDS011;14306;49.942;11.570;2022-11-21T07:48:24;4.60;;;1.77;;
1370;SDS011;14306;49.942;11.570;2022-11-21T07:50:50;2.70;;;1.47;;
1370;SDS011;14306;49.942;11.570;2022-11-21T07:53:17;6.70;;;1.97;;
1370;SDS011;14306;49.942;11.570;2022-11-21T07:55:44;4.33;;;2.60;;
1370;SDS011;14306;49.942;11.570;2022-11-21T07:58:11;3.87;;;2.00;;
1370;SDS011;14306;49.942;11.570;2022-11-21T08:00:40;12.90;;;2.20;;
1370;SDS011;14306;49.942;11.570;2022-11-21T08:03:07;5.77;;;2.07;;
1370;SDS011;14306;49.942;11.570;2022-11-21T08:05:37;4.43;;;1.93;;
1370;SDS011;14306;49.942;11.570;2022-11-21T08:08:04;6.10;;;1.87;;
1370;SDS011;14306;49.942;11.570;2022-11-21T08:10:32;2.60;;;1.37;;
1370;SDS011;14306;49.942;11.570;2022-11-21T08:12:59;7.53;;;1.63;;
1370;SDS011;14306;49.942;11.570;2022-11-21T08:15:25;4.33;;;2.07;;
1370;SDS011;14306;49.942;11.570;2022-11-21T08:17:52;4.53;;;3.20;;
1370;SDS011;14306;49.942;11.570;2022-11-21T08:20:19;4.80;;;2.27;;
1370;SDS011;14306;49.942;11.570;2022-11-21T08:22:46;8.17;;;2.33;;
1370;SDS011;14306;49.942;11.570;2022-11-21T08:25:13;7.23;;;3.10;;
1370;SDS011;14306;49.942;11.570;2022-11-21T08:27:40;6.27;;;2.60;;
1370;SDS011;14306;49.942;11.570;2022-11-21T08:30:08;9.43;;;3.20;;
1370;SDS011;14306;49.942;11.570;2022-11-21T08:32:36;4.40;;;2.20;;
1370;SDS011;14306;49.942;11.570;2022-11-21T08:35:03;10.43;;;2.83;;
1370;SDS011;14306;49.942;11.570;2022-11-21T08:37:30;9.00;;;2.90;;
1370;SDS011;14306;49.942;11.570;2022-11-21T08:39:58;3.87;;;2.07;;
1370;SDS011;14306;49.942;11.570;2022-11-21T08:42:24;3.90;;;1.87;;
1370;SDS011;14306;49.942;11.570;2022-11-21T08:44:51;8.30;;;2.87;;
1370;SDS011;14306;49.942;11.570;2022-11-21T08:47:18;5.53;;;1.93;;
1370;SDS011;14306;49.942;11.570;2022-11-21T08:49:45;4.70;;;2.53;;
1370;SDS011;14306;49.942;11.570;2022-11-21T08:52:12;4.97;;;2.27;;
1370;SDS011;14306;49.942;11.570;2022-11-21T08:54:39;3.57;;;2.00;;
1370;SDS011;14306;49.942;11.570;2022-11-21T08:57:07;4.97;;;1.90;;
1370;SDS011;14306;49.942;11.570;2022-11-21T08:59:33;2.57;;;2.20;;
1370;SDS011;14306;49.942;11.570;2022-11-21T09:02:00;5.00;;;1.97;;
1370;SDS011;14306;49.942;11.570;2022-11-21T09:04:26;4.80;;;1.77;;
1370;SDS011;14306;49.942;11.570;2022-11-21T09:06:53;4.67;;;2.43;;
1370;SDS011;14306;49.942;11.570;2022-11-21T09:09:19;3.53;;;1.70;;
1370;SDS011;14306;49.942;11.570;2022-11-21T09:11:46;1.20;;;1.00;;
1370;SDS011;14306;49.942;11.570;2022-11-21T09:14:14;2.83;;;2.10;;
1370;SDS011;14306;49.942;11.570;2022-11-21T09:17:10;1.73;;;1.30;;
1370;SDS011;14306;49.942;11.570;2022-11-21T09:19:55;4.90;;;1.87;;
1370;SDS011;14306;49.942;11.570;2022-11-21T09:22:22;5.10;;;1.53;;
1370;SDS011;14306;49.942;11.570;2022-11-21T09:24:49;2.87;;;1.70;;
1370;SDS011;14306;49.942;11.570;2022-11-21T09:27:15;5.37;;;1.40;;
1370;SDS011;14306;49.942;11.570;2022-11-21T09:29:43;1.63;;;1.27;;
1370;SDS011;14306;49.942;11.570;2022-11-21T09:32:10;2.80;;;1.33;;
1370;SDS011;14306;49.942;11.570;2022-11-21T09:34:36;1.70;;;1.60;;
1370;SDS011;14306;49.942;11.570;2022-11-21T09:37:03;4.73;;;2.10;;
1370;SDS011;14306;49.942;11.570;2022-11-21T09:39:29;2.07;;;1.67;;
1370;SDS011;14306;49.942;11.570;2022-11-21T09:41:59;5.07;;;2.17;;
1370;SDS011;14306;49.942;11.570;2022-11-21T09:44:42;2.93;;;2.20;;
1370;SDS011;14306;49.942;11.570;2022-11-21T09:47:23;3.00;;;1.80;;
1370;SDS011;14306;49.942;11.570;2022-11-21T09:49:55;3.63;;;1.97;;
1370;SDS011;14306;49.942;11.570;2022-11-21T09:52:26;4.23;;;2.13;;
1370;SDS011;14306;49.942;11.570;2022-11-21T09:54:58;4.03;;;2.03;;
1370;SDS011;14306;49.942;11.570;2022-11-21T09:57:29;5.33;;;3.07;;
1370;SDS011;14306;49.942;11.570;2022-11-21T10:00:02;4.80;;;2.40;;
1370;SDS011;14306;49.942;11.570;2022-11-21T10:02:38;4.57;;;2.50;;
1370;SDS011;14306;49.942;11.570;2022-11-21T10:05:08;8.00;;;3.77;;
1370;SDS011;14306;49.942;11.570;2022-11-21T10:07:38;8.23;;;3.53;;
1370;SDS011;14306;49.942;11.570;2022-11-21T10:10:13;5.53;;;3.37;;
1370;SDS011;14306;49.942;11.570;2022-11-21T10:12:47;8.87;;;3.60;;
1370;SDS011;14306;49.942;11.570;2022-11-21T10:15:38;8.23;;;3.57;;
1370;SDS011;14306;49.942;11.570;2022-11-21T10:18:26;6.70;;;3.37;;
1370;SDS011;14306;49.942;11.570;2022-11-21T10:21:06;8.40;;;2.90;;
1370;SDS011;14306;49.942;11.570;2022-11-21T10:24:03;5.57;;;2.60;;
1370;SDS011;14306;49.942;11.570;2022-11-21T10:26:39;4.77;;;2.23;;
1370;SDS011;14306;49.942;11.570;2022-11-21T10:29:13;2.30;;;1.80;;
1370;SDS011;14306;49.942;11.570;2022-11-21T10:31:46;3.80;;;2.07;;
1370;SDS011;14306;49.942;11.570;2022-11-21T10:34:16;2.37;;;2.17;;
1370;SDS011;14306;49.942;11.570;2022-11-21T10:36:46;2.90;;;1.93;;
1370;SDS011;14306;49.942;11.570;2022-11-21T10:39:18;4.07;;;2.63;;
1370;SDS011;14306;49.942;11.570;2022-11-21T10:41:50;2.87;;;2.57;;
1370;SDS011;14306;49.942;11.570;2022-11-21T10:44:24;6.37;;;2.33;;
1370;SDS011;14306;49.942;11.570;2022-11-21T10:47:14;3.43;;;2.50;;
1370;SDS011;14306;49.942;11.570;2022-11-21T10:49:51;2.63;;;2.43;;
1370;SDS011;14306;49.942;11.570;2022-11-21T10:52:24;8.37;;;2.40;;
1370;SDS011;14306;49.942;11.570;2022-11-21T10:55:02;5.03;;;2.80;;
1370;SDS011;14306;49.942;11.570;2022-11-21T10:57:32;3.80;;;2.13;;
1370;SDS011;14306;49.942;11.570;2022-11-21T11:00:12;3.40;;;2.00;;
1370;SDS011;14306;49.942;11.570;2022-11-21T11:02:57;3.80;;;2.43;;
1370;SDS011;14306;49.942;11.570;2022-11-21T11:05:28;8.93;;;2.80;;
1370;SDS011;14306;49.942;11.570;2022-11-21T11:07:59;6.37;;;2.60;;
1370;SDS011;14306;49.942;11.570;2022-11-21T11:10:31;2.43;;;2.20;;
1370;SDS011;14306;49.942;11.570;2022-11-21T11:13:02;3.70;;;2.20;;
1370;SDS011;14306;49.942;11.570;2022-11-21T11:15:57;6.17;;;2.87;;
1370;SDS011;14306;49.942;11.570;2022-11-21T11:18:30;3.90;;;2.20;;
1370;SDS011;14306;49.942;11.570;2022-11-21T11:21:10;3.83;;;2.23;;
1370;SDS011;14306;49.942;11.570;2022-11-21T11:23:40;9.50;;;2.63;;
1370;SDS011;14306;49.942;11.570;2022-11-21T11:26:18;8.40;;;3.80;;
1370;SDS011;14306;49.942;11.570;2022-11-21T11:28:53;5.13;;;2.40;;
1370;SDS011;14306;49.942;11.570;2022-11-21T11:31:38;4.97;;;2.50;;
1370;SDS011;14306;49.942;11.570;2022-11-21T11:34:08;10.30;;;3.13;;
1370;SDS011;14306;49.942;11.570;2022-11-21T11:36:40;3.33;;;3.00;;
1370;SDS011;14306;49.942;11.570;2022-11-21T11:39:16;5.73;;;2.47;;
1370;SDS011;14306;49.942;11.570;2022-11-21T11:41:54;2.70;;;2.43;;
1370;SDS011;14306;49.942;11.570;2022-11-21T11:44:56;6.40;;;2.77;;
1370;SDS011;14306;49.942;11.570;2022-11-21T11:47:57;3.67;;;2.60;;
1370;SDS011;14306;49.942;11.570;2022-11-21T11:50:28;7.73;;;2.57;;
1370;SDS011;14306;49.942;11.570;2022-11-21T11:53:00;2.73;;;2.13;;
1370;SDS011;14306;49.942;11.570;2022-11-21T11:55:33;5.73;;;2.70;;
1370;SDS011;14306;49.942;11.570;2022-11-21T11:58:06;4.17;;;3.50;;
1370;SDS011;14306;49.942;11.570;2022-11-21T12:00:44;9.87;;;3.70;;
1370;SDS011;14306;49.942;11.570;2022-11-21T12:03:14;5.53;;;2.80;;
1370;SDS011;14306;49.942;11.570;2022-11-21T12:05:55;3.00;;;2.50;;
1370;SDS011;14306;49.942;11.570;2022-11-21T12:08:29;4.83;;;3.50;;
1370;SDS011;14306;49.942;11.570;2022-11-21T12:11:08;6.27;;;2.63;;
1370;SDS011;14306;49.942;11.570;2022-11-21T12:13:58;5.80;;;2.83;;
1370;SDS011;14306;49.942;11.570;2022-11-21T12:16:36;2.00;;;1.83;;
1370;SDS011;14306;49.942;11.570;2022-11-21T12:19:06;7.93;;;2.30;;
1370;SDS011;14306;49.942;11.570;2022-11-21T12:21:40;1.97;;;1.67;;
1370;SDS011;14306;49.942;11.570;2022-11-21T12:24:07;3.53;;;2.20;;
1370;SDS011;14306;49.942;11.570;2022-11-21T12:26:39;3.60;;;2.27;;
1370;SDS011;14306;49.942;11.570;2022-11-21T12:29:22;2.53;;;2.07;;
1370;SDS011;14306;49.942;11.570;2022-11-21T12:32:15;2.77;;;1.87;;
1370;SDS011;14306;49.942;11.570;2022-11-21T12:35:01;8.07;;;3.50;;
1370;SDS011;14306;49.942;11.570;2022-11-21T12:37:53;3.90;;;3.60;;
1370;SDS011;14306;49.942;11.570;2022-11-21T12:40:32;2.77;;;2.50;;
1370;SDS011;14306;49.942;11.570;2022-11-21T12:43:12;5.73;;;2.00;;
1370;SDS011;14306;49.942;11.570;2022-11-21T12:45:49;3.53;;;2.63;;
1370;SDS011;14306;49.942;11.570;2022-11-21T12:48:25;3.20;;;2.47;;
1370;SDS011;14306;49.942;11.570;2022-11-21T12:51:30;2.90;;;2.60;;
1370;SDS011;14306;49.942;11.570;2022-11-21T12:57:34;3.90;;;2.90;;
1370;SDS011;14306;49.942;11.570;2022-11-21T13:00:13;4.50;;;2.87;;
1370;SDS011;14306;49.942;11.570;2022-11-21T13:05:57;3.70;;;2.90;;
1370;SDS011;14306;49.942;11.570;2022-11-21T13:08:27;2.47;;;2.10;;
1370;SDS011;14306;49.942;11.570;2022-11-21T13:11:01;3.37;;;2.40;;
1370;SDS011;14306;49.942;11.570;2022-11-21T13:13:51;5.70;;;2.97;;
1370;SDS011;14306;49.942;11.570;2022-11-21T13:16:25;3.40;;;2.50;;
1370;SDS011;14306;49.942;11.570;2022-11-21T13:19:01;3.33;;;2.20;;
1370;SDS011;14306;49.942;11.570;2022-11-21T13:21:41;3.07;;;2.67;;
1370;SDS011;14306;49.942;11.570;2022-11-21T13:24:12;3.90;;;3.20;;
1370;SDS011;14306;49.942;11.570;2022-11-21T13:27:25;4.07;;;3.60;;
1370;SDS011;14306;49.942;11.570;2022-11-21T13:32:43;9.23;;;3.43;;
1370;SDS011;14306;49.942;11.570;2022-11-21T13:38:11;5.83;;;3.80;;
1370;SDS011;14306;49.942;11.570;2022-11-21T13:40:38;5.00;;;3.00;;
1370;SDS011;14306;49.942;11.570;2022-11-21T13:43:27;5.60;;;3.77;;
1370;SDS011;14306;49.942;11.570;2022-11-21T13:45:53;5.23;;;4.40;;
1370;SDS011;14306;49.942;11.570;2022-11-21T13:54:33;5.03;;;3.10;;
1370;SDS011;14306;49.942;11.570;2022-11-21T13:57:27;5.80;;;4.60;;
1370;SDS011;14306;49.942;11.570;2022-11-21T14:00:13;5.00;;;3.17;;
1370;SDS011;14306;49.942;11.570;2022-11-21T14:02:59;16.83;;;3.70;;
1370;SDS011;14306;49.942;11.570;2022-11-21T14:05:47;4.73;;;3.53;;
1370;SDS011;14306;49.942;11.570;2022-11-21T14:08:25;6.50;;;4.30;;
1370;SDS011;14306;49.942;11.570;2022-11-21T14:10:54;5.77;;;4.00;;
1370;SDS011;14306;49.942;11.570;2022-11-21T14:13:24;9.27;;;3.57;;
1370;SDS011;14306;49.942;11.570;2022-11-21T14:16:04;4.33;;;3.70;;
1370;SDS011;14306;49.942;11.570;2022-11-21T14:18:41;6.40;;;4.30;;
1370;SDS011;14306;49.942;11.570;2022-11-21T14:21:15;5.87;;;4.50;;
1370;SDS011;14306;49.942;11.570;2022-11-21T14:23:46;5.87;;;4.50;;
1370;SDS011;14306;49.942;11.570;2022-11-21T14:26:13;5.00;;;4.00;;
1370;SDS011;14306;49.942;11.570;2022-11-21T14:28:41;8.50;;;4.27;;
1370;SDS011;14306;49.942;11.570;2022-11-21T14:31:10;5.30;;;4.20;;
1370;SDS011;14306;49.942;11.570;2022-11-21T14:33:37;6.20;;;4.33;;
1370;SDS011;14306;49.942;11.570;2022-11-21T14:36:06;6.57;;;4.60;;
1370;SDS011;14306;49.942;11.570;2022-11-21T14:38:39;10.70;;;4.00;;
1370;SDS011;14306;49.942;11.570;2022-11-21T14:41:21;8.17;;;4.70;;
1370;SDS011;14306;49.942;11.570;2022-11-21T14:43:59;6.43;;;4.77;;
1370;SDS011;14306;49.942;11.570;2022-11-21T14:46:29;7.83;;;3.53;;
1370;SDS011;14306;49.942;11.570;2022-11-21T14:49:08;7.87;;;4.30;;
1370;SDS011;14306;49.942;11.570;2022-11-21T14:51:44;9.23;;;4.70;;
1370;SDS011;14306;49.942;11.570;2022-11-21T14:54:13;6.70;;;3.67;;
1370;SDS011;14306;49.942;11.570;2022-11-21T14:56:45;5.37;;;3.33;;
1370;SDS011;14306;49.942;11.570;2022-11-21T14:59:15;4.73;;;3.03;;
1370;SDS011;14306;49.942;11.570;2022-11-21T15:01:55;11.40;;;5.50;;
1370;SDS011;14306;49.942;11.570;2022-11-21T15:04:25;4.33;;;2.90;;
1370;SDS011;14306;49.942;11.570;2022-11-21T15:06:54;2.53;;;2.17;;
1370;SDS011;14306;49.942;11.570;2022-11-21T15:09:20;5.37;;;2.90;;
1370;SDS011;14306;49.942;11.570;2022-11-21T15:11:48;5.37;;;3.07;;
1370;SDS011;14306;49.942;11.570;2022-11-21T15:14:19;2.50;;;1.60;;
1370;SDS011;14306;49.942;11.570;2022-11-21T15:16:52;6.40;;;2.20;;
1370;SDS011;14306;49.942;11.570;2022-11-21T15:19:23;5.70;;;2.33;;
1370;SDS011;14306;49.942;11.570;2022-11-21T15:21:51;8.03;;;2.80;;
1370;SDS011;14306;49.942;11.570;2022-11-21T15:24:27;6.20;;;3.20;;
1370;SDS011;14306;49.942;11.570;2022-11-21T15:26:55;5.97;;;2.07;;